Time,TemperatureF,DewpointF,PressureIn,WindDirection,WindDirectionDegrees,WindSpeedMPH,WindSpeedGustMPH,Humidity,HourlyPrecipIn,Conditions,Clouds,dailyrainin,SolarRadiationWatts/m^2,SoftwareType,DateUTC
2013-02-20 00:00:00,47.7,44.0,29.77,ESE,110,2.0,9.0,86,0.00,,,0.29,0,weatherlink.com 1.10,2013-02-20 07:00:00,
2013-02-20 00:15:00,47.4,44.0,29.76,ESE,115,5.0,9.0,87,0.00,,,0.00,0,weatherlink.com 1.10,2013-02-20 07:15:00,
2013-02-20 00:30:00,47.2,44.0,29.76,ESE,113,3.0,7.0,87,0.00,,,0.00,0,weatherlink.com 1.10,2013-02-20 07:30:00,
2013-02-20 00:45:00,47.0,43.0,29.75,ESE,114,0.0,4.0,87,0.00,,,0.00,0,weatherlink.com 1.10,2013-02-20 07:45:00,
2013-02-20 01:00:00,46.9,43.0,29.75,ESE,114,0.0,4.0,86,0.00,,,0.00,0,weatherlink.com 1.10,2013-02-20 08:00:00,
2013-02-20 01:15:00,46.9,43.0,29.75,ESE,114,1.0,7.0,86,0.00,,,0.00,0,weatherlink.com 1.10,2013-02-20 08:15:00,
2013-02-20 01:30:00,47.0,43.0,29.74,ESE,114,1.0,4.0,86,0.00,,,0.00,0,weatherlink.com 1.10,2013-02-20 08:30:00,
2013-02-20 01:45:00,47.1,43.0,29.74,ESE,117,0.0,7.0,85,0.00,,,0.00,0,weatherlink.com 1.10,2013-02-20 08:45:00,
2013-02-20 02:00:00,46.7,43.0,29.73,ESE,117,1.0,3.0,85,0.00,,,0.00,0,weatherlink.com 1.10,2013-02-20 09:00:00,
2013-02-20 02:15:00,46.3,42.0,29.73,ESE,117,0.0,3.0,85,0.00,,,0.00,0,weatherlink.com 1.10,2013-02-20 09:15:00,
2013-02-20 02:30:00,45.8,42.0,29.73,ESE,117,0.0,2.0,86,0.00,,,0.00,0,weatherlink.com 1.10,2013-02-20 09:30:00,
2013-02-20 02:45:00,45.3,41.0,29.72,ESE,117,0.0,0.0,86,0.00,,,0.00,0,weatherlink.com 1.10,2013-02-20 09:45:00,
2013-02-20 03:00:00,45.2,42.0,29.71,ESE,117,3.0,3.0,87,0.00,,,0.00,0,weatherlink.com 1.10,2013-02-20 10:00:00,
2013-02-20 03:15:00,45.2,42.0,29.70,ESE,118,1.0,5.0,87,0.00,,,0.00,0,weatherlink.com 1.10,2013-02-20 10:15:00,
2013-02-20 03:30:00,45.3,41.0,29.70,ESE,118,0.0,2.0,86,0.00,,,0.00,0,weatherlink.com 1.10,2013-02-20 10:30:00,
2013-02-20 03:45:00,45.2,41.0,29.70,ESE,118,0.0,4.0,86,0.00,,,0.00,0,weatherlink.com 1.10,2013-02-20 10:45:00,
2013-02-20 04:00:00,45.1,41.0,29.70,ESE,118,0.0,3.0,86,0.00,,,0.00,0,weatherlink.com 1.10,2013-02-20 11:00:00,
2013-02-20 04:16:00,44.7,41.0,29.69,ESE,118,0.0,4.0,86,0.00,,,0.00,0,weatherlink.com 1.10,2013-02-20 11:16:00,
2013-02-20 04:30:00,44.9,41.0,29.69,ESE,118,0.0,8.0,85,0.00,,,0.00,0,weatherlink.com 1.10,2013-02-20 11:30:00,
2013-02-20 04:45:00,44.6,40.0,29.68,ESE,118,1.0,8.0,85,0.00,,,0.00,0,weatherlink.com 1.10,2013-02-20 11:45:00,
2013-02-20 05:01:00,44.5,40.0,29.68,ESE,118,2.0,4.0,85,0.00,,,0.00,0,weatherlink.com 1.10,2013-02-20 12:01:00,
2013-02-20 05:15:00,44.4,40.0,29.68,SE,125,2.0,9.0,85,0.00,,,0.00,0,weatherlink.com 1.10,2013-02-20 12:15:00,
2013-02-20 05:31:00,44.0,40.0,29.68,SE,126,1.0,4.0,85,0.00,,,0.00,0,weatherlink.com 1.10,2013-02-20 12:31:00,
2013-02-20 05:45:00,43.6,39.0,29.68,SE,125,1.0,4.0,85,0.00,,,0.00,0,weatherlink.com 1.10,2013-02-20 12:45:00,
2013-02-20 06:00:00,43.4,39.0,29.67,SE,126,0.0,2.0,85,0.00,,,0.00,0,weatherlink.com 1.10,2013-02-20 13:00:00,
2013-02-20 06:15:00,43.3,39.0,29.67,SE,126,0.0,2.0,85,0.00,,,0.00,0,weatherlink.com 1.10,2013-02-20 13:15:00,
2013-02-20 06:31:00,43.1,39.0,29.67,SE,125,1.0,4.0,85,0.00,,,0.00,0,weatherlink.com 1.10,2013-02-20 13:31:00,
2013-02-20 06:46:00,43.0,39.0,29.67,SE,125,0.0,5.0,85,0.00,,,0.00,7,weatherlink.com 1.10,2013-02-20 13:46:00,
2013-02-20 07:01:00,43.1,39.0,29.68,SE,125,2.0,3.0,84,0.00,,,0.00,16,weatherlink.com 1.10,2013-02-20 14:01:00,
2013-02-20 07:16:00,43.7,39.0,29.68,SE,126,0.0,2.0,84,0.00,,,0.00,46,weatherlink.com 1.10,2013-02-20 14:16:00,
2013-02-20 07:31:00,44.4,39.0,29.68,SE,126,3.0,4.0,82,0.00,,,0.00,97,weatherlink.com 1.10,2013-02-20 14:31:00,
2013-02-20 07:46:00,45.0,40.0,29.68,SE,125,2.0,4.0,81,0.00,,,0.00,151,weatherlink.com 1.10,2013-02-20 14:46:00,
2013-02-20 08:01:00,45.8,40.0,29.68,SE,125,1.0,5.0,80,0.00,,,0.00,213,weatherlink.com 1.10,2013-02-20 15:01:00,
2013-02-20 08:16:00,46.9,40.0,29.68,SE,126,3.0,7.0,77,0.00,,,0.00,274,weatherlink.com 1.10,2013-02-20 15:16:00,
2013-02-20 08:31:00,47.4,40.0,29.68,SE,128,0.0,7.0,75,0.00,,,0.00,322,weatherlink.com 1.10,2013-02-20 15:31:00,
2013-02-20 08:46:00,48.7,40.0,29.68,SE,130,1.0,6.0,72,0.00,,,0.00,371,weatherlink.com 1.10,2013-02-20 15:46:00,
2013-02-20 09:01:00,50.1,40.0,29.68,SE,130,4.0,5.0,68,0.00,,,0.00,420,weatherlink.com 1.10,2013-02-20 16:01:00,
2013-02-20 09:17:00,50.4,40.0,29.68,SE,135,3.0,6.0,68,0.00,,,0.00,464,weatherlink.com 1.10,2013-02-20 16:17:00,
2013-02-20 09:31:00,50.8,41.0,29.68,SE,136,2.0,6.0,68,0.00,,,0.00,508,weatherlink.com 1.10,2013-02-20 16:31:00,
2013-02-20 09:46:00,51.7,40.0,29.68,SE,138,3.0,5.0,64,0.00,,,0.00,547,weatherlink.com 1.10,2013-02-20 16:46:00,
2013-02-20 10:01:00,52.4,39.0,29.68,SE,137,3.0,5.0,61,0.00,,,0.00,585,weatherlink.com 1.10,2013-02-20 17:01:00,
2013-02-20 10:17:00,53.3,35.0,29.67,SE,138,4.0,6.0,51,0.00,,,0.00,621,weatherlink.com 1.10,2013-02-20 17:17:00,
2013-02-20 10:32:00,54.8,36.0,29.67,SSE,156,2.0,7.0,49,0.00,,,0.00,647,weatherlink.com 1.10,2013-02-20 17:32:00,
2013-02-20 10:47:00,55.0,37.0,29.66,SSE,166,0.0,6.0,52,0.00,,,0.00,670,weatherlink.com 1.10,2013-02-20 17:47:00,
2013-02-20 11:02:00,55.9,35.0,29.65,South,170,4.0,6.0,45,0.00,,,0.00,696,weatherlink.com 1.10,2013-02-20 18:02:00,
2013-02-20 11:17:00,56.0,33.0,29.65,SSW,195,2.0,10.0,42,0.00,,,0.00,714,weatherlink.com 1.10,2013-02-20 18:17:00,
2013-02-20 11:32:00,57.4,32.0,29.64,SW,215,0.0,9.0,39,0.00,,,0.00,733,weatherlink.com 1.10,2013-02-20 18:32:00,
2013-02-20 11:47:00,58.0,31.0,29.63,SW,234,5.0,10.0,36,0.00,,,0.00,745,weatherlink.com 1.10,2013-02-20 18:47:00,
2013-02-20 12:02:00,59.9,30.0,29.62,WSW,248,2.0,9.0,32,0.00,,,0.00,752,weatherlink.com 1.10,2013-02-20 19:02:00,
2013-02-20 12:17:00,60.3,29.0,29.60,WSW,254,3.0,9.0,30,0.00,,,0.00,751,weatherlink.com 1.10,2013-02-20 19:17:00,
2013-02-20 12:32:00,60.5,28.0,29.60,West,277,1.0,12.0,29,0.00,,,0.00,747,weatherlink.com 1.10,2013-02-20 19:32:00,
2013-02-20 12:47:00,61.0,24.0,29.59,WSW,245,4.0,12.0,24,0.00,,,0.00,740,weatherlink.com 1.10,2013-02-20 19:47:00,
2013-02-20 13:03:00,61.4,28.0,29.57,WNW,284,0.0,11.0,28,0.00,,,0.00,729,weatherlink.com 1.10,2013-02-20 20:03:00,
2013-02-20 13:17:00,60.3,26.0,29.56,WSW,245,4.0,13.0,27,0.00,,,0.00,705,weatherlink.com 1.10,2013-02-20 20:17:00,
2013-02-20 13:32:00,60.9,27.0,29.55,SW,233,7.0,12.0,27,0.00,,,0.00,666,weatherlink.com 1.10,2013-02-20 20:32:00,
2013-02-20 13:47:00,61.9,26.0,29.55,WSW,252,9.0,10.0,26,0.00,,,0.00,647,weatherlink.com 1.10,2013-02-20 20:47:00,
2013-02-20 14:02:00,62.4,26.0,29.53,West,261,1.0,12.0,25,0.00,,,0.00,613,weatherlink.com 1.10,2013-02-20 21:02:00,
2013-02-20 14:17:00,63.0,27.0,29.53,West,273,1.0,10.0,26,0.00,,,0.00,538,weatherlink.com 1.10,2013-02-20 21:17:00,
2013-02-20 14:32:00,62.6,27.0,29.52,WNW,283,1.0,17.0,26,0.00,,,0.00,439,weatherlink.com 1.10,2013-02-20 21:32:00,
2013-02-20 14:47:00,62.3,27.0,29.51,WNW,283,5.0,12.0,26,0.00,,,0.00,366,weatherlink.com 1.10,2013-02-20 21:47:00,
2013-02-20 15:03:00,61.3,25.0,29.51,WNW,293,12.0,20.0,25,0.00,,,0.00,285,weatherlink.com 1.10,2013-02-20 22:03:00,
2013-02-20 15:18:00,61.1,26.0,29.50,WNW,287,1.0,14.0,26,0.00,,,0.00,279,weatherlink.com 1.10,2013-02-20 22:18:00,
2013-02-20 15:33:00,60.6,25.0,29.49,WSW,248,6.0,14.0,26,0.00,,,0.00,216,weatherlink.com 1.10,2013-02-20 22:33:00,
2013-02-20 15:48:00,60.4,25.0,29.50,WNW,283,5.0,17.0,26,0.00,,,0.00,218,weatherlink.com 1.10,2013-02-20 22:48:00,
2013-02-20 16:03:00,60.1,25.0,29.49,WNW,285,9.0,16.0,26,0.00,,,0.00,213,weatherlink.com 1.10,2013-02-20 23:03:00,
2013-02-20 16:18:00,60.0,24.0,29.50,SW,227,2.0,14.0,25,0.00,,,0.00,165,weatherlink.com 1.10,2013-02-20 23:18:00,
2013-02-20 16:33:00,59.2,24.0,29.50,WSW,254,8.0,17.0,26,0.00,,,0.00,123,weatherlink.com 1.10,2013-02-20 23:33:00,
2013-02-20 16:48:00,59.0,24.0,29.49,WSW,244,1.0,19.0,26,0.00,,,0.00,105,weatherlink.com 1.10,2013-02-20 23:48:00,
2013-02-20 17:03:00,58.6,25.0,29.50,WSW,256,7.0,14.0,27,0.00,,,0.00,58,weatherlink.com 1.10,2013-02-21 00:03:00,
2013-02-20 17:18:00,57.9,24.0,29.50,WSW,250,4.0,19.0,27,0.00,,,0.00,42,weatherlink.com 1.10,2013-02-21 00:18:00,
2013-02-20 17:33:00,57.5,24.0,29.51,WSW,249,9.0,20.0,28,0.00,,,0.00,19,weatherlink.com 1.10,2013-02-21 00:33:00,
2013-02-20 17:48:00,56.7,25.0,29.51,West,263,2.0,22.0,29,0.00,,,0.00,5,weatherlink.com 1.10,2013-02-21 00:48:00,
2013-02-20 18:03:00,56.3,25.0,29.51,SW,217,15.0,16.0,30,0.00,,,0.00,0,weatherlink.com 1.10,2013-02-21 01:03:00,
2013-02-20 18:18:00,56.0,25.0,29.51,West,279,0.0,18.0,30,0.00,,,0.00,0,weatherlink.com 1.10,2013-02-21 01:18:00,
2013-02-20 18:33:00,55.5,25.0,29.52,WSW,246,0.0,18.0,31,0.00,,,0.00,0,weatherlink.com 1.10,2013-02-21 01:33:00,
2013-02-20 18:48:00,54.6,26.0,29.53,WSW,257,2.0,24.0,33,0.00,,,0.00,0,weatherlink.com 1.10,2013-02-21 01:48:00,
2013-02-20 19:03:00,52.8,28.0,29.55,WSW,242,6.0,19.0,38,0.00,,,0.00,0,weatherlink.com 1.10,2013-02-21 02:03:00,
2013-02-20 19:18:00,50.0,30.0,29.57,West,276,1.0,18.0,47,0.00,,,0.00,0,weatherlink.com 1.10,2013-02-21 02:18:00,
2013-02-20 19:33:00,45.8,32.0,29.59,NW,321,6.0,21.0,58,0.00,,,0.00,0,weatherlink.com 1.10,2013-02-21 02:33:00,
2013-02-20 19:48:00,42.9,30.0,29.63,WNW,287,7.0,26.0,60,0.00,,,0.00,0,weatherlink.com 1.10,2013-02-21 02:48:00,
2013-02-20 20:03:00,41.7,30.0,29.64,WNW,284,13.0,24.0,63,0.00,,,0.00,0,weatherlink.com 1.10,2013-02-21 03:03:00,
2013-02-20 20:18:00,40.4,30.0,29.63,WNW,296,6.0,25.0,66,0.00,,,0.00,0,weatherlink.com 1.10,2013-02-21 03:18:00,
2013-02-20 20:33:00,40.0,30.0,29.65,West,273,5.0,15.0,67,0.00,,,0.00,0,weatherlink.com 1.10,2013-02-21 03:33:00,
2013-02-20 20:48:00,40.0,29.0,29.67,West,275,12.0,26.0,65,0.00,,,0.00,0,weatherlink.com 1.10,2013-02-21 03:48:00,
2013-02-20 21:03:00,39.5,29.0,29.66,WNW,294,21.0,29.0,67,0.00,,,0.00,0,weatherlink.com 1.10,2013-02-21 04:03:00,
2013-02-20 21:18:00,38.5,29.0,29.67,WNW,288,4.0,33.0,69,0.00,,,0.00,0,weatherlink.com 1.10,2013-02-21 04:18:00,
2013-02-20 21:33:00,39.1,29.0,29.69,WSW,250,8.0,19.0,66,0.00,,,0.00,0,weatherlink.com 1.10,2013-02-21 04:33:00,
2013-02-20 21:48:00,39.8,27.0,29.70,WSW,245,9.0,20.0,61,0.00,,,0.00,0,weatherlink.com 1.10,2013-02-21 04:48:00,
2013-02-20 22:03:00,40.0,27.0,29.68,West,260,2.0,10.0,59,0.00,,,0.00,0,weatherlink.com 1.10,2013-02-21 05:03:00,
2013-02-20 22:18:00,40.0,27.0,29.71,West,281,1.0,20.0,59,0.00,,,0.00,0,weatherlink.com 1.10,2013-02-21 05:18:00,
2013-02-20 22:33:00,39.4,28.0,29.72,WSW,238,1.0,15.0,63,0.00,,,0.00,0,weatherlink.com 1.10,2013-02-21 05:33:00,
2013-02-20 22:48:00,39.1,27.0,29.72,WSW,246,4.0,13.0,61,0.00,,,0.00,0,weatherlink.com 1.10,2013-02-21 05:48:00,
2013-02-20 23:03:00,38.9,26.0,29.72,WSW,245,1.0,11.0,60,0.00,,,0.00,0,weatherlink.com 1.10,2013-02-21 06:03:00,
2013-02-20 23:18:00,38.7,25.0,29.73,WSW,239,0.0,16.0,59,0.00,,,0.00,0,weatherlink.com 1.10,2013-02-21 06:18:00,
2013-02-20 23:33:00,38.4,25.0,29.74,WSW,243,0.0,11.0,59,0.00,,,0.00,0,weatherlink.com 1.10,2013-02-21 06:33:00,
2013-02-20 23:48:00,37.8,25.0,29.74,SW,234,0.0,9.0,60,0.00,,,0.00,0,weatherlink.com 1.10,2013-02-21 06:48:00,